Terminal Aerodrome Forecast
Issued by NWS Melbourne, FL

Home | Current Version | Previous Version | Text Only | Print | Product List | Glossary On
Versions: 1 2 3 4 5 6 7 8 9 10 11 12 13 14 15 16 17 18
316
FTUS42 KMLB 231746
TAFDAB
TAF
KDAB 231746Z 2318/2418 36009KT P6SM VCSH SCT010 OVC025
      TEMPO 2318/2322 3SM SHRA OVC010
     FM240000 01011KT P6SM VCSH BKN008 OVC015
     FM240600 35008KT P6SM OVC005
     FM241500 02012KT P6SM VCSH SCT008 OVC015=

USA.gov is the U.S. government's official web portal to all federal, state and local government web resources and services.